sensor_id;sensor_type;location;lat;lon;timestamp;temperature;humidity
35746;DHT22;21870;42.812;74.628;2023-09-12T00:01:46;18.40;99.90
35746;DHT22;21870;42.812;74.628;2023-09-12T00:04:13;18.40;99.90
35746;DHT22;21870;42.812;74.628;2023-09-12T00:06:39;18.20;99.90
35746;DHT22;21870;42.812;74.628;2023-09-12T00:09:05;18.20;99.90
35746;DHT22;21870;42.812;74.628;2023-09-12T00:11:34;18.10;99.90
35746;DHT22;21870;42.812;74.628;2023-09-12T00:14:00;18.10;99.90
35746;DHT22;21870;42.812;74.628;2023-09-12T00:16:26;18.10;99.90
35746;DHT22;21870;42.812;74.628;2023-09-12T00:18:52;18.20;99.90
35746;DHT22;21870;42.812;74.628;2023-09-12T00:21:18;18.20;99.90
35746;DHT22;21870;42.812;74.628;2023-09-12T00:23:44;18.10;99.90
35746;DHT22;21870;42.812;74.628;2023-09-12T00:26:10;18.20;99.90
35746;DHT22;21870;42.812;74.628;2023-09-12T00:28:36;18.10;99.90
35746;DHT22;21870;42.812;74.628;2023-09-12T00:31:07;18.10;99.90
35746;DHT22;21870;42.812;74.628;2023-09-12T00:33:33;18.10;99.90
35746;DHT22;21870;42.812;74.628;2023-09-12T00:35:59;18.00;99.90
35746;DHT22;21870;42.812;74.628;2023-09-12T00:38:25;18.00;99.90
35746;DHT22;21870;42.812;74.628;2023-09-12T00:40:51;18.00;99.90
35746;DHT22;21870;42.812;74.628;2023-09-12T00:43:17;17.80;99.90
35746;DHT22;21870;42.812;74.628;2023-09-12T00:45:43;17.80;99.90
35746;DHT22;21870;42.812;74.628;2023-09-12T00:48:09;17.60;99.90
35746;DHT22;21870;42.812;74.628;2023-09-12T00:50:37;17.50;99.90
35746;DHT22;21870;42.812;74.628;2023-09-12T00:53:04;17.50;99.90
35746;DHT22;21870;42.812;74.628;2023-09-12T00:55:32;17.60;99.90
35746;DHT22;21870;42.812;74.628;2023-09-12T00:58:00;17.60;99.90
35746;DHT22;21870;42.812;74.628;2023-09-12T01:00:27;17.60;99.90
35746;DHT22;21870;42.812;74.628;2023-09-12T01:02:53;17.60;99.90
35746;DHT22;21870;42.812;74.628;2023-09-12T01:05:20;17.50;99.90
35746;DHT22;21870;42.812;74.628;2023-09-12T01:07:48;17.50;99.90
35746;DHT22;21870;42.812;74.628;2023-09-12T01:10:14;17.50;99.90
35746;DHT22;21870;42.812;74.628;2023-09-12T01:12:40;17.40;99.90
35746;DHT22;21870;42.812;74.628;2023-09-12T01:15:06;17.30;99.90
35746;DHT22;21870;42.812;74.628;2023-09-12T01:17:42;17.40;99.90
35746;DHT22;21870;42.812;74.628;2023-09-12T01:20:14;17.40;99.90
35746;DHT22;21870;42.812;74.628;2023-09-12T01:26:13;17.50;99.90
35746;DHT22;21870;42.812;74.628;2023-09-12T01:28:45;17.50;99.90
35746;DHT22;21870;42.812;74.628;2023-09-12T01:31:13;17.50;99.90
35746;DHT22;21870;42.812;74.628;2023-09-12T01:33:41;17.50;99.90
35746;DHT22;21870;42.812;74.628;2023-09-12T01:36:09;17.60;99.90
35746;DHT22;21870;42.812;74.628;2023-09-12T01:38:35;17.60;99.90
35746;DHT22;21870;42.812;74.628;2023-09-12T01:41:01;17.70;99.90
35746;DHT22;21870;42.812;74.628;2023-09-12T01:43:29;17.70;99.90
35746;DHT22;21870;42.812;74.628;2023-09-12T01:45:59;17.70;99.90
35746;DHT22;21870;42.812;74.628;2023-09-12T01:48:28;17.60;99.90
35746;DHT22;21870;42.812;74.628;2023-09-12T01:51:00;17.50;99.90
35746;DHT22;21870;42.812;74.628;2023-09-12T01:53:27;17.50;99.90
35746;DHT22;21870;42.812;74.628;2023-09-12T01:55:54;17.50;99.90
35746;DHT22;21870;42.812;74.628;2023-09-12T01:58:22;17.50;99.90
35746;DHT22;21870;42.812;74.628;2023-09-12T02:00:48;17.60;99.90
35746;DHT22;21870;42.812;74.628;2023-09-12T02:03:14;17.60;99.90
35746;DHT22;21870;42.812;74.628;2023-09-12T02:05:40;17.60;99.90
35746;DHT22;21870;42.812;74.628;2023-09-12T02:08:07;17.70;99.90
35746;DHT22;21870;42.812;74.628;2023-09-12T02:10:33;17.80;99.90
35746;DHT22;21870;42.812;74.628;2023-09-12T02:12:59;17.80;99.90
35746;DHT22;21870;42.812;74.628;2023-09-12T02:15:25;17.90;99.90
35746;DHT22;21870;42.812;74.628;2023-09-12T02:17:51;18.00;99.90
35746;DHT22;21870;42.812;74.628;2023-09-12T02:20:18;18.10;99.90
35746;DHT22;21870;42.812;74.628;2023-09-12T02:22:45;18.20;99.90
35746;DHT22;21870;42.812;74.628;2023-09-12T02:25:11;18.40;99.90
35746;DHT22;21870;42.812;74.628;2023-09-12T02:27:37;18.50;99.90
35746;DHT22;21870;42.812;74.628;2023-09-12T02:30:03;18.60;99.90
35746;DHT22;21870;42.812;74.628;2023-09-12T02:32:30;18.60;99.90
35746;DHT22;21870;42.812;74.628;2023-09-12T02:34:56;18.60;99.90
35746;DHT22;21870;42.812;74.628;2023-09-12T02:37:23;18.70;99.90
35746;DHT22;21870;42.812;74.628;2023-09-12T02:39:49;18.70;99.90
35746;DHT22;21870;42.812;74.628;2023-09-12T02:42:15;18.90;99.90
35746;DHT22;21870;42.812;74.628;2023-09-12T02:44:41;19.10;99.90
35746;DHT22;21870;42.812;74.628;2023-09-12T02:47:07;19.10;99.90
35746;DHT22;21870;42.812;74.628;2023-09-12T02:49:33;19.20;99.90
35746;DHT22;21870;42.812;74.628;2023-09-12T02:51:59;19.20;99.90
35746;DHT22;21870;42.812;74.628;2023-09-12T02:54:25;19.30;99.90
35746;DHT22;21870;42.812;74.628;2023-09-12T02:56:51;19.30;99.90
35746;DHT22;21870;42.812;74.628;2023-09-12T02:59:17;19.30;99.90
35746;DHT22;21870;42.812;74.628;2023-09-12T03:01:43;19.40;99.90
35746;DHT22;21870;42.812;74.628;2023-09-12T03:04:09;19.60;99.90
35746;DHT22;21870;42.812;74.628;2023-09-12T03:06:35;19.50;99.90
35746;DHT22;21870;42.812;74.628;2023-09-12T03:09:02;19.60;99.90
35746;DHT22;21870;42.812;74.628;2023-09-12T03:11:28;19.80;99.90
35746;DHT22;21870;42.812;74.628;2023-09-12T03:13:55;19.80;99.90
35746;DHT22;21870;42.812;74.628;2023-09-12T03:16:21;19.90;99.90
35746;DHT22;21870;42.812;74.628;2023-09-12T03:18:49;19.90;99.90
35746;DHT22;21870;42.812;74.628;2023-09-12T03:21:15;20.20;99.90
35746;DHT22;21870;42.812;74.628;2023-09-12T03:23:41;20.20;99.90
35746;DHT22;21870;42.812;74.628;2023-09-12T03:26:07;20.20;99.90
35746;DHT22;21870;42.812;74.628;2023-09-12T03:28:33;20.30;99.90
35746;DHT22;21870;42.812;74.628;2023-09-12T03:31:10;20.30;99.90
35746;DHT22;21870;42.812;74.628;2023-09-12T03:33:40;20.60;99.90
35746;DHT22;21870;42.812;74.628;2023-09-12T03:36:07;20.50;99.90
35746;DHT22;21870;42.812;74.628;2023-09-12T03:38:36;20.50;99.90
35746;DHT22;21870;42.812;74.628;2023-09-12T03:41:02;20.30;99.90
35746;DHT22;21870;42.812;74.628;2023-09-12T03:43:28;20.40;99.90
35746;DHT22;21870;42.812;74.628;2023-09-12T03:45:54;20.40;99.90
35746;DHT22;21870;42.812;74.628;2023-09-12T03:48:20;20.50;99.90
35746;DHT22;21870;42.812;74.628;2023-09-12T03:50:46;20.60;99.90
35746;DHT22;21870;42.812;74.628;2023-09-12T03:53:14;20.70;99.90
35746;DHT22;21870;42.812;74.628;2023-09-12T03:55:40;20.90;99.90
35746;DHT22;21870;42.812;74.628;2023-09-12T03:58:06;21.00;99.90
35746;DHT22;21870;42.812;74.628;2023-09-12T04:00:32;21.10;99.90
35746;DHT22;21870;42.812;74.628;2023-09-12T04:02:58;21.30;99.90
35746;DHT22;21870;42.812;74.628;2023-09-12T04:05:25;21.40;99.90
35746;DHT22;21870;42.812;74.628;2023-09-12T04:07:52;21.40;99.90
35746;DHT22;21870;42.812;74.628;2023-09-12T04:10:19;21.60;99.90
35746;DHT22;21870;42.812;74.628;2023-09-12T04:12:45;21.40;99.90
35746;DHT22;21870;42.812;74.628;2023-09-12T04:15:11;21.30;99.90
35746;DHT22;21870;42.812;74.628;2023-09-12T04:17:37;21.40;99.90
35746;DHT22;21870;42.812;74.628;2023-09-12T04:20:04;21.30;99.90
35746;DHT22;21870;42.812;74.628;2023-09-12T04:22:33;21.50;99.90
35746;DHT22;21870;42.812;74.628;2023-09-12T04:24:59;21.50;99.90
35746;DHT22;21870;42.812;74.628;2023-09-12T04:27:25;21.60;99.90
35746;DHT22;21870;42.812;74.628;2023-09-12T04:29:51;21.70;99.90
35746;DHT22;21870;42.812;74.628;2023-09-12T04:32:17;21.80;99.90
35746;DHT22;21870;42.812;74.628;2023-09-12T04:34:49;22.10;99.90
35746;DHT22;21870;42.812;74.628;2023-09-12T04:37:15;22.20;99.90
35746;DHT22;21870;42.812;74.628;2023-09-12T04:39:41;22.20;99.90
35746;DHT22;21870;42.812;74.628;2023-09-12T04:42:07;22.30;99.90
35746;DHT22;21870;42.812;74.628;2023-09-12T04:44:36;22.30;99.90
35746;DHT22;21870;42.812;74.628;2023-09-12T04:47:02;22.50;99.90
35746;DHT22;21870;42.812;74.628;2023-09-12T04:49:28;22.60;99.90
35746;DHT22;21870;42.812;74.628;2023-09-12T04:51:54;22.70;99.90
35746;DHT22;21870;42.812;74.628;2023-09-12T04:54:21;22.70;99.90
35746;DHT22;21870;42.812;74.628;2023-09-12T04:56:47;22.70;99.90
35746;DHT22;21870;42.812;74.628;2023-09-12T04:59:13;22.60;99.90
35746;DHT22;21870;42.812;74.628;2023-09-12T05:01:39;22.30;99.90
35746;DHT22;21870;42.812;74.628;2023-09-12T05:04:05;22.30;99.90
35746;DHT22;21870;42.812;74.628;2023-09-12T05:06:31;22.50;99.90
35746;DHT22;21870;42.812;74.628;2023-09-12T05:08:57;22.80;99.90
35746;DHT22;21870;42.812;74.628;2023-09-12T05:11:23;23.00;99.90
35746;DHT22;21870;42.812;74.628;2023-09-12T05:13:50;23.20;99.90
35746;DHT22;21870;42.812;74.628;2023-09-12T05:16:16;23.10;99.90
35746;DHT22;21870;42.812;74.628;2023-09-12T05:18:42;23.20;99.90
35746;DHT22;21870;42.812;74.628;2023-09-12T05:21:08;23.30;99.90
35746;DHT22;21870;42.812;74.628;2023-09-12T05:23:34;23.40;99.90
35746;DHT22;21870;42.812;74.628;2023-09-12T05:26:00;23.50;99.90
35746;DHT22;21870;42.812;74.628;2023-09-12T05:28:26;23.70;99.90
35746;DHT22;21870;42.812;74.628;2023-09-12T05:30:53;23.70;99.90
35746;DHT22;21870;42.812;74.628;2023-09-12T05:33:19;23.80;99.90
35746;DHT22;21870;42.812;74.628;2023-09-12T05:35:45;23.80;99.90
35746;DHT22;21870;42.812;74.628;2023-09-12T05:38:11;23.90;99.90
35746;DHT22;21870;42.812;74.628;2023-09-12T05:40:37;23.80;99.90
35746;DHT22;21870;42.812;74.628;2023-09-12T05:43:03;23.80;99.90
35746;DHT22;21870;42.812;74.628;2023-09-12T05:45:29;23.60;99.90
35746;DHT22;21870;42.812;74.628;2023-09-12T05:47:56;23.70;99.90
35746;DHT22;21870;42.812;74.628;2023-09-12T05:50:22;23.80;99.90
35746;DHT22;21870;42.812;74.628;2023-09-12T05:52:48;23.80;99.90
35746;DHT22;21870;42.812;74.628;2023-09-12T05:55:14;24.20;99.90
35746;DHT22;21870;42.812;74.628;2023-09-12T05:57:41;24.20;99.90
35746;DHT22;21870;42.812;74.628;2023-09-12T06:00:07;24.40;99.90
35746;DHT22;21870;42.812;74.628;2023-09-12T06:02:38;24.60;99.90
35746;DHT22;21870;42.812;74.628;2023-09-12T06:05:05;24.90;99.90
35746;DHT22;21870;42.812;74.628;2023-09-12T06:07:32;25.00;99.90
35746;DHT22;21870;42.812;74.628;2023-09-12T06:09:58;25.10;99.90
35746;DHT22;21870;42.812;74.628;2023-09-12T06:12:24;25.00;99.90
35746;DHT22;21870;42.812;74.628;2023-09-12T06:14:51;24.90;99.90
35746;DHT22;21870;42.812;74.628;2023-09-12T06:17:18;25.00;99.90
35746;DHT22;21870;42.812;74.628;2023-09-12T06:19:44;24.80;99.90
35746;DHT22;21870;42.812;74.628;2023-09-12T06:22:11;24.90;99.90
35746;DHT22;21870;42.812;74.628;2023-09-12T06:24:37;24.90;99.90
35746;DHT22;21870;42.812;74.628;2023-09-12T06:27:04;24.90;99.90
35746;DHT22;21870;42.812;74.628;2023-09-12T06:29:30;24.90;99.90
35746;DHT22;21870;42.812;74.628;2023-09-12T06:31:56;24.80;99.90
35746;DHT22;21870;42.812;74.628;2023-09-12T06:34:23;25.00;99.90
35746;DHT22;21870;42.812;74.628;2023-09-12T06:36:49;25.00;99.90
35746;DHT22;21870;42.812;74.628;2023-09-12T06:39:15;25.10;99.90
35746;DHT22;21870;42.812;74.628;2023-09-12T06:41:41;25.10;99.90
35746;DHT22;21870;42.812;74.628;2023-09-12T06:44:07;25.30;99.90
35746;DHT22;21870;42.812;74.628;2023-09-12T06:46:33;25.40;99.90
35746;DHT22;21870;42.812;74.628;2023-09-12T06:49:03;25.30;99.90
35746;DHT22;21870;42.812;74.628;2023-09-12T06:51:29;25.40;99.90
35746;DHT22;21870;42.812;74.628;2023-09-12T06:53:56;25.40;99.90
35746;DHT22;21870;42.812;74.628;2023-09-12T06:56:22;25.50;99.90
35746;DHT22;21870;42.812;74.628;2023-09-12T06:58:50;25.60;99.90
35746;DHT22;21870;42.812;74.628;2023-09-12T07:01:18;25.60;99.90
35746;DHT22;21870;42.812;74.628;2023-09-12T07:03:44;25.60;99.90
35746;DHT22;21870;42.812;74.628;2023-09-12T07:06:10;25.70;99.10
35746;DHT22;21870;42.812;74.628;2023-09-12T07:08:36;25.90;99.80
35746;DHT22;21870;42.812;74.628;2023-09-12T07:11:04;26.00;99.90
35746;DHT22;21870;42.812;74.628;2023-09-12T07:13:33;26.10;99.90
35746;DHT22;21870;42.812;74.628;2023-09-12T07:15:59;26.20;99.10
35746;DHT22;21870;42.812;74.628;2023-09-12T07:18:29;26.20;98.90
35746;DHT22;21870;42.812;74.628;2023-09-12T07:21:03;26.40;98.70
35746;DHT22;21870;42.812;74.628;2023-09-12T07:23:30;26.40;98.30
35746;DHT22;21870;42.812;74.628;2023-09-12T07:25:57;26.40;99.90
35746;DHT22;21870;42.812;74.628;2023-09-12T07:28:24;26.10;99.90
35746;DHT22;21870;42.812;74.628;2023-09-12T07:30:50;25.80;99.90
35746;DHT22;21870;42.812;74.628;2023-09-12T07:33:16;25.60;99.90
35746;DHT22;21870;42.812;74.628;2023-09-12T07:35:42;25.30;99.90
35746;DHT22;21870;42.812;74.628;2023-09-12T07:38:08;25.20;99.90
35746;DHT22;21870;42.812;74.628;2023-09-12T07:40:34;25.00;99.90
35746;DHT22;21870;42.812;74.628;2023-09-12T07:43:01;24.90;99.90
35746;DHT22;21870;42.812;74.628;2023-09-12T07:45:28;24.70;99.90
35746;DHT22;21870;42.812;74.628;2023-09-12T07:47:55;24.60;99.90
35746;DHT22;21870;42.812;74.628;2023-09-12T07:50:24;24.50;99.90
35746;DHT22;21870;42.812;74.628;2023-09-12T07:52:50;24.40;99.90
35746;DHT22;21870;42.812;74.628;2023-09-12T07:55:16;24.20;99.90
35746;DHT22;21870;42.812;74.628;2023-09-12T07:57:42;24.00;99.90
35746;DHT22;21870;42.812;74.628;2023-09-12T08:00:09;23.80;99.90
35746;DHT22;21870;42.812;74.628;2023-09-12T08:02:35;23.70;99.90
35746;DHT22;21870;42.812;74.628;2023-09-12T08:05:01;23.70;99.90
35746;DHT22;21870;42.812;74.628;2023-09-12T08:07:27;24.10;99.90
35746;DHT22;21870;42.812;74.628;2023-09-12T08:09:55;24.30;99.90
35746;DHT22;21870;42.812;74.628;2023-09-12T08:12:26;24.80;99.90
35746;DHT22;21870;42.812;74.628;2023-09-12T08:14:53;25.10;99.90
35746;DHT22;21870;42.812;74.628;2023-09-12T08:17:20;25.40;99.90
35746;DHT22;21870;42.812;74.628;2023-09-12T08:19:46;25.40;99.90
35746;DHT22;21870;42.812;74.628;2023-09-12T08:22:13;25.50;99.90
35746;DHT22;21870;42.812;74.628;2023-09-12T08:24:40;25.60;99.90
35746;DHT22;21870;42.812;74.628;2023-09-12T08:27:07;25.50;99.90
35746;DHT22;21870;42.812;74.628;2023-09-12T08:29:34;25.50;99.90
35746;DHT22;21870;42.812;74.628;2023-09-12T08:32:01;25.70;99.90
35746;DHT22;21870;42.812;74.628;2023-09-12T08:34:27;25.80;99.90
35746;DHT22;21870;42.812;74.628;2023-09-12T08:36:53;26.00;99.90
35746;DHT22;21870;42.812;74.628;2023-09-12T08:39:27;26.20;99.90
35746;DHT22;21870;42.812;74.628;2023-09-12T08:41:53;26.30;99.90
35746;DHT22;21870;42.812;74.628;2023-09-12T08:44:21;26.20;99.90
35746;DHT22;21870;42.812;74.628;2023-09-12T08:46:47;26.10;99.90
35746;DHT22;21870;42.812;74.628;2023-09-12T08:49:14;26.10;99.90
35746;DHT22;21870;42.812;74.628;2023-09-12T08:51:41;25.90;99.90
35746;DHT22;21870;42.812;74.628;2023-09-12T08:54:08;25.60;99.90
35746;DHT22;21870;42.812;74.628;2023-09-12T08:56:38;25.50;99.90
35746;DHT22;21870;42.812;74.628;2023-09-12T08:59:05;25.40;99.90
35746;DHT22;21870;42.812;74.628;2023-09-12T09:01:32;25.30;99.90
35746;DHT22;21870;42.812;74.628;2023-09-12T09:04:02;25.10;99.90
35746;DHT22;21870;42.812;74.628;2023-09-12T09:06:31;24.90;99.90
35746;DHT22;21870;42.812;74.628;2023-09-12T09:08:59;25.10;99.90
35746;DHT22;21870;42.812;74.628;2023-09-12T09:11:26;25.30;99.90
35746;DHT22;21870;42.812;74.628;2023-09-12T09:13:54;25.30;99.90
35746;DHT22;21870;42.812;74.628;2023-09-12T09:16:20;25.20;99.90
35746;DHT22;21870;42.812;74.628;2023-09-12T09:19:02;25.00;99.90
35746;DHT22;21870;42.812;74.628;2023-09-12T09:21:32;24.70;99.90
35746;DHT22;21870;42.812;74.628;2023-09-12T09:24:01;24.60;99.90
35746;DHT22;21870;42.812;74.628;2023-09-12T09:26:44;24.40;99.90
35746;DHT22;21870;42.812;74.628;2023-09-12T09:29:14;24.00;99.90
35746;DHT22;21870;42.812;74.628;2023-09-12T09:31:41;23.90;99.90
35746;DHT22;21870;42.812;74.628;2023-09-12T09:34:15;23.80;99.90
35746;DHT22;21870;42.812;74.628;2023-09-12T09:36:51;23.80;99.90
35746;DHT22;21870;42.812;74.628;2023-09-12T09:39:19;23.70;99.90
35746;DHT22;21870;42.812;74.628;2023-09-12T09:41:50;23.50;99.90
35746;DHT22;21870;42.812;74.628;2023-09-12T09:44:17;23.50;99.90
35746;DHT22;21870;42.812;74.628;2023-09-12T09:46:44;23.50;99.90
35746;DHT22;21870;42.812;74.628;2023-09-12T09:49:14;23.50;99.90
35746;DHT22;21870;42.812;74.628;2023-09-12T09:51:44;23.60;99.90
35746;DHT22;21870;42.812;74.628;2023-09-12T09:54:13;23.50;99.90
35746;DHT22;21870;42.812;74.628;2023-09-12T09:56:47;23.60;99.90
35746;DHT22;21870;42.812;74.628;2023-09-12T09:59:21;23.60;99.90
35746;DHT22;21870;42.812;74.628;2023-09-12T10:01:49;23.30;99.90
35746;DHT22;21870;42.812;74.628;2023-09-12T10:04:16;22.90;99.90
35746;DHT22;21870;42.812;74.628;2023-09-12T10:06:44;22.70;99.90
35746;DHT22;21870;42.812;74.628;2023-09-12T10:09:15;22.70;99.90
35746;DHT22;21870;42.812;74.628;2023-09-12T10:11:43;22.60;99.90
35746;DHT22;21870;42.812;74.628;2023-09-12T10:14:09;22.50;99.90
35746;DHT22;21870;42.812;74.628;2023-09-12T10:16:47;22.40;99.90
35746;DHT22;21870;42.812;74.628;2023-09-12T10:19:22;22.20;99.90
35746;DHT22;21870;42.812;74.628;2023-09-12T10:22:09;22.10;99.90
35746;DHT22;21870;42.812;74.628;2023-09-12T10:24:36;22.10;99.90
35746;DHT22;21870;42.812;74.628;2023-09-12T10:27:03;22.10;99.90
35746;DHT22;21870;42.812;74.628;2023-09-12T10:29:31;22.00;99.90
35746;DHT22;21870;42.812;74.628;2023-09-12T10:31:57;21.90;99.90
35746;DHT22;21870;42.812;74.628;2023-09-12T10:34:25;21.90;99.90
35746;DHT22;21870;42.812;74.628;2023-09-12T10:36:52;21.70;99.90
35746;DHT22;21870;42.812;74.628;2023-09-12T10:39:21;21.70;99.90
35746;DHT22;21870;42.812;74.628;2023-09-12T10:41:50;21.90;99.90
35746;DHT22;21870;42.812;74.628;2023-09-12T10:44:17;22.30;99.90
35746;DHT22;21870;42.812;74.628;2023-09-12T10:46:45;22.50;99.90
35746;DHT22;21870;42.812;74.628;2023-09-12T10:49:14;22.80;99.90
35746;DHT22;21870;42.812;74.628;2023-09-12T10:51:41;22.90;99.90
35746;DHT22;21870;42.812;74.628;2023-09-12T10:54:09;23.20;99.90
35746;DHT22;21870;42.812;74.628;2023-09-12T10:56:38;23.10;99.90
35746;DHT22;21870;42.812;74.628;2023-09-12T11:01:35;23.10;99.90
35746;DHT22;21870;42.812;74.628;2023-09-12T11:06:53;23.10;99.90
35746;DHT22;21870;42.812;74.628;2023-09-12T11:09:25;23.00;99.90
35746;DHT22;21870;42.812;74.628;2023-09-12T11:12:04;23.10;99.90
35746;DHT22;21870;42.812;74.628;2023-09-12T11:14:33;23.10;99.90
35746;DHT22;21870;42.812;74.628;2023-09-12T11:19:52;23.30;99.90
35746;DHT22;21870;42.812;74.628;2023-09-12T11:22:30;23.30;99.90
35746;DHT22;21870;42.812;74.628;2023-09-12T11:25:03;23.40;99.90
35746;DHT22;21870;42.812;74.628;2023-09-12T11:30:20;23.70;99.90
35746;DHT22;21870;42.812;74.628;2023-09-12T11:32:47;23.60;99.90
35746;DHT22;21870;42.812;74.628;2023-09-12T11:35:14;23.70;99.90
35746;DHT22;21870;42.812;74.628;2023-09-12T11:37:49;23.80;99.90
35746;DHT22;21870;42.812;74.628;2023-09-12T11:42:42;23.70;99.90
35746;DHT22;21870;42.812;74.628;2023-09-12T11:45:11;23.60;99.90
35746;DHT22;21870;42.812;74.628;2023-09-12T11:47:41;23.50;99.90
35746;DHT22;21870;42.812;74.628;2023-09-12T11:50:08;23.30;99.90
35746;DHT22;21870;42.812;74.628;2023-09-12T11:52:37;23.30;99.90
35746;DHT22;21870;42.812;74.628;2023-09-12T11:55:04;23.40;99.90
35746;DHT22;21870;42.812;74.628;2023-09-12T11:57:30;23.30;99.90
35746;DHT22;21870;42.812;74.628;2023-09-12T11:59:57;23.20;99.90
35746;DHT22;21870;42.812;74.628;2023-09-12T12:02:23;23.10;99.90
35746;DHT22;21870;42.812;74.628;2023-09-12T12:04:50;23.10;99.90
35746;DHT22;21870;42.812;74.628;2023-09-12T12:07:16;23.00;99.90
35746;DHT22;21870;42.812;74.628;2023-09-12T12:09:42;22.90;99.90
35746;DHT22;21870;42.812;74.628;2023-09-12T12:12:12;23.00;99.90
35746;DHT22;21870;42.812;74.628;2023-09-12T12:14:39;22.90;99.90
35746;DHT22;21870;42.812;74.628;2023-09-12T12:17:10;23.00;99.90
35746;DHT22;21870;42.812;74.628;2023-09-12T12:19:37;22.90;99.90
35746;DHT22;21870;42.812;74.628;2023-09-12T12:22:04;22.80;99.90
35746;DHT22;21870;42.812;74.628;2023-09-12T12:24:44;22.80;99.90
35746;DHT22;21870;42.812;74.628;2023-09-12T12:27:15;22.80;99.90
35746;DHT22;21870;42.812;74.628;2023-09-12T12:29:41;22.90;99.90
35746;DHT22;21870;42.812;74.628;2023-09-12T12:32:10;22.80;99.90
35746;DHT22;21870;42.812;74.628;2023-09-12T12:34:36;22.70;99.90
35746;DHT22;21870;42.812;74.628;2023-09-12T12:37:03;22.70;99.90
35746;DHT22;21870;42.812;74.628;2023-09-12T12:39:31;22.60;99.90
35746;DHT22;21870;42.812;74.628;2023-09-12T12:41:57;22.50;99.90
35746;DHT22;21870;42.812;74.628;2023-09-12T12:44:32;22.50;99.90
35746;DHT22;21870;42.812;74.628;2023-09-12T12:47:04;22.50;99.90
35746;DHT22;21870;42.812;74.628;2023-09-12T12:49:38;22.40;99.90
35746;DHT22;21870;42.812;74.628;2023-09-12T12:52:12;22.40;99.90
35746;DHT22;21870;42.812;74.628;2023-09-12T12:54:39;22.40;99.90
35746;DHT22;21870;42.812;74.628;2023-09-12T12:57:09;22.40;99.90
35746;DHT22;21870;42.812;74.628;2023-09-12T12:59:38;22.40;99.90
35746;DHT22;21870;42.812;74.628;2023-09-12T13:02:05;22.30;99.90
35746;DHT22;21870;42.812;74.628;2023-09-12T13:04:37;22.20;99.90
35746;DHT22;21870;42.812;74.628;2023-09-12T13:07:04;22.00;99.90
35746;DHT22;21870;42.812;74.628;2023-09-12T13:09:32;21.80;99.90
35746;DHT22;21870;42.812;74.628;2023-09-12T13:11:58;21.70;99.90
35746;DHT22;21870;42.812;74.628;2023-09-12T13:14:24;21.60;99.90
35746;DHT22;21870;42.812;74.628;2023-09-12T13:16:57;21.50;99.90
35746;DHT22;21870;42.812;74.628;2023-09-12T13:19:26;21.30;99.90
35746;DHT22;21870;42.812;74.628;2023-09-12T13:21:52;21.20;99.90
35746;DHT22;21870;42.812;74.628;2023-09-12T13:24:19;21.20;99.90
35746;DHT22;21870;42.812;74.628;2023-09-12T13:26:44;21.10;99.90
35746;DHT22;21870;42.812;74.628;2023-09-12T13:29:10;21.10;99.90
35746;DHT22;21870;42.812;74.628;2023-09-12T13:31:36;21.10;99.90
35746;DHT22;21870;42.812;74.628;2023-09-12T13:34:03;21.10;99.90
35746;DHT22;21870;42.812;74.628;2023-09-12T13:36:29;21.00;99.90
35746;DHT22;21870;42.812;74.628;2023-09-12T13:38:55;21.00;99.90
35746;DHT22;21870;42.812;74.628;2023-09-12T13:41:23;21.00;99.90
35746;DHT22;21870;42.812;74.628;2023-09-12T13:43:51;20.90;99.90
35746;DHT22;21870;42.812;74.628;2023-09-12T13:46:17;20.90;99.90
35746;DHT22;21870;42.812;74.628;2023-09-12T13:48:42;20.80;99.90
35746;DHT22;21870;42.812;74.628;2023-09-12T13:51:08;20.80;99.90
35746;DHT22;21870;42.812;74.628;2023-09-12T13:53:34;20.70;99.90
35746;DHT22;21870;42.812;74.628;2023-09-12T13:56:00;20.70;99.90
35746;DHT22;21870;42.812;74.628;2023-09-12T13:58:27;20.70;99.90
35746;DHT22;21870;42.812;74.628;2023-09-12T14:00:53;20.70;99.90
35746;DHT22;21870;42.812;74.628;2023-09-12T14:03:19;20.70;99.90
35746;DHT22;21870;42.812;74.628;2023-09-12T14:05:45;20.60;99.90
35746;DHT22;21870;42.812;74.628;2023-09-12T14:08:11;20.60;99.90
35746;DHT22;21870;42.812;74.628;2023-09-12T14:10:37;20.60;99.90
35746;DHT22;21870;42.812;74.628;2023-09-12T14:13:03;20.60;99.90
35746;DHT22;21870;42.812;74.628;2023-09-12T14:15:29;20.50;99.90
35746;DHT22;21870;42.812;74.628;2023-09-12T14:17:55;20.50;99.90
35746;DHT22;21870;42.812;74.628;2023-09-12T14:20:21;20.50;99.90
35746;DHT22;21870;42.812;74.628;2023-09-12T14:22:47;20.50;99.90
35746;DHT22;21870;42.812;74.628;2023-09-12T14:25:13;20.50;99.90
35746;DHT22;21870;42.812;74.628;2023-09-12T14:27:43;20.50;99.90
35746;DHT22;21870;42.812;74.628;2023-09-12T14:30:10;20.40;99.90
35746;DHT22;21870;42.812;74.628;2023-09-12T14:32:39;20.40;99.90
35746;DHT22;21870;42.812;74.628;2023-09-12T14:35:05;20.40;99.90
35746;DHT22;21870;42.812;74.628;2023-09-12T14:37:31;20.30;99.90
35746;DHT22;21870;42.812;74.628;2023-09-12T14:39:58;20.30;99.90
35746;DHT22;21870;42.812;74.628;2023-09-12T14:42:25;20.20;99.90
35746;DHT22;21870;42.812;74.628;2023-09-12T14:44:50;20.10;99.90
35746;DHT22;21870;42.812;74.628;2023-09-12T14:47:16;20.10;99.90
35746;DHT22;21870;42.812;74.628;2023-09-12T14:49:42;20.10;99.90
35746;DHT22;21870;42.812;74.628;2023-09-12T14:52:08;20.10;99.90
35746;DHT22;21870;42.812;74.628;2023-09-12T14:54:34;20.10;99.90
35746;DHT22;21870;42.812;74.628;2023-09-12T14:57:00;20.10;99.90
35746;DHT22;21870;42.812;74.628;2023-09-12T14:59:26;20.10;99.90
35746;DHT22;21870;42.812;74.628;2023-09-12T15:01:52;20.10;99.90
35746;DHT22;21870;42.812;74.628;2023-09-12T15:04:18;20.10;99.90
35746;DHT22;21870;42.812;74.628;2023-09-12T15:06:44;20.10;99.90
35746;DHT22;21870;42.812;74.628;2023-09-12T15:09:10;20.10;99.90
35746;DHT22;21870;42.812;74.628;2023-09-12T15:11:36;20.10;99.90
35746;DHT22;21870;42.812;74.628;2023-09-12T15:14:02;20.10;99.90
35746;DHT22;21870;42.812;74.628;2023-09-12T15:16:32;20.10;99.90
35746;DHT22;21870;42.812;74.628;2023-09-12T15:19:00;20.10;99.90
35746;DHT22;21870;42.812;74.628;2023-09-12T15:21:28;20.00;99.90
35746;DHT22;21870;42.812;74.628;2023-09-12T15:23:54;20.10;99.90
35746;DHT22;21870;42.812;74.628;2023-09-12T15:26:20;20.10;99.90
35746;DHT22;21870;42.812;74.628;2023-09-12T15:28:46;20.00;99.90
35746;DHT22;21870;42.812;74.628;2023-09-12T15:31:12;20.00;99.90
35746;DHT22;21870;42.812;74.628;2023-09-12T15:33:38;20.00;99.90